sensor_id;sensor_type;location;lat;lon;timestamp;P1;durP1;ratioP1;P2;durP2;ratioP2
29774;SDS011;16676;51.202;6.774;2022-09-29T00:00:43;7.65;;;3.10;;
29774;SDS011;16676;51.202;6.774;2022-09-29T00:04:45;6.65;;;3.00;;
29774;SDS011;16676;51.202;6.774;2022-09-29T00:08:47;6.28;;;3.40;;
29774;SDS011;16676;51.202;6.774;2022-09-29T00:12:51;6.90;;;3.50;;
29774;SDS011;16676;51.202;6.774;2022-09-29T00:16:53;6.55;;;3.35;;
29774;SDS011;16676;51.202;6.774;2022-09-29T00:20:56;7.72;;;3.40;;
29774;SDS011;16676;51.202;6.774;2022-09-29T00:24:59;7.45;;;3.10;;
29774;SDS011;16676;51.202;6.774;2022-09-29T00:29:02;6.60;;;3.15;;
29774;SDS011;16676;51.202;6.774;2022-09-29T00:33:04;6.28;;;2.97;;
29774;SDS011;16676;51.202;6.774;2022-09-29T00:37:06;6.72;;;3.55;;
29774;SDS011;16676;51.202;6.774;2022-09-29T00:41:11;6.25;;;3.00;;
29774;SDS011;16676;51.202;6.774;2022-09-29T00:45:20;5.25;;;2.70;;
29774;SDS011;16676;51.202;6.774;2022-09-29T00:49:30;7.50;;;3.10;;
29774;SDS011;16676;51.202;6.774;2022-09-29T00:53:40;7.72;;;3.28;;
29774;SDS011;16676;51.202;6.774;2022-09-29T00:57:43;6.10;;;2.88;;
29774;SDS011;16676;51.202;6.774;2022-09-29T01:01:49;6.47;;;2.92;;
29774;SDS011;16676;51.202;6.774;2022-09-29T01:05:53;6.90;;;3.13;;
29774;SDS011;16676;51.202;6.774;2022-09-29T01:09:59;5.95;;;2.80;;
29774;SDS011;16676;51.202;6.774;2022-09-29T01:14:02;7.60;;;3.55;;
29774;SDS011;16676;51.202;6.774;2022-09-29T01:18:08;6.82;;;3.15;;
29774;SDS011;16676;51.202;6.774;2022-09-29T01:22:13;7.10;;;3.28;;
29774;SDS011;16676;51.202;6.774;2022-09-29T01:30:53;6.97;;;3.42;;
29774;SDS011;16676;51.202;6.774;2022-09-29T01:39:24;5.63;;;2.50;;
29774;SDS011;16676;51.202;6.774;2022-09-29T01:43:31;4.90;;;2.50;;
29774;SDS011;16676;51.202;6.774;2022-09-29T01:47:38;5.43;;;2.85;;
29774;SDS011;16676;51.202;6.774;2022-09-29T01:51:43;5.15;;;2.80;;
29774;SDS011;16676;51.202;6.774;2022-09-29T01:55:50;6.60;;;2.70;;
29774;SDS011;16676;51.202;6.774;2022-09-29T01:59:54;5.93;;;2.90;;
29774;SDS011;16676;51.202;6.774;2022-09-29T02:08:09;5.78;;;2.88;;
29774;SDS011;16676;51.202;6.774;2022-09-29T02:12:15;5.30;;;2.85;;
29774;SDS011;16676;51.202;6.774;2022-09-29T02:16:25;6.70;;;2.78;;
29774;SDS011;16676;51.202;6.774;2022-09-29T02:20:31;4.80;;;2.57;;
29774;SDS011;16676;51.202;6.774;2022-09-29T02:24:33;5.07;;;2.58;;
29774;SDS011;16676;51.202;6.774;2022-09-29T02:28:36;5.35;;;2.47;;
29774;SDS011;16676;51.202;6.774;2022-09-29T02:32:38;7.32;;;3.00;;
29774;SDS011;16676;51.202;6.774;2022-09-29T02:36:44;6.07;;;3.17;;
29774;SDS011;16676;51.202;6.774;2022-09-29T02:40:56;5.25;;;2.42;;
29774;SDS011;16676;51.202;6.774;2022-09-29T02:45:18;3.80;;;2.40;;
29774;SDS011;16676;51.202;6.774;2022-09-29T02:49:33;5.75;;;2.83;;
29774;SDS011;16676;51.202;6.774;2022-09-29T02:53:53;5.00;;;2.65;;
29774;SDS011;16676;51.202;6.774;2022-09-29T02:58:06;5.32;;;2.55;;
29774;SDS011;16676;51.202;6.774;2022-09-29T03:02:14;4.78;;;2.38;;
29774;SDS011;16676;51.202;6.774;2022-09-29T03:06:17;4.95;;;2.67;;
29774;SDS011;16676;51.202;6.774;2022-09-29T03:10:21;4.72;;;2.67;;
29774;SDS011;16676;51.202;6.774;2022-09-29T03:14:23;5.13;;;2.60;;
29774;SDS011;16676;51.202;6.774;2022-09-29T03:18:25;4.28;;;2.25;;
29774;SDS011;16676;51.202;6.774;2022-09-29T03:22:27;3.85;;;2.25;;
29774;SDS011;16676;51.202;6.774;2022-09-29T03:26:31;4.20;;;2.30;;
29774;SDS011;16676;51.202;6.774;2022-09-29T03:30:32;6.75;;;2.15;;
29774;SDS011;16676;51.202;6.774;2022-09-29T03:34:35;5.38;;;2.60;;
29774;SDS011;16676;51.202;6.774;2022-09-29T03:38:37;5.25;;;3.03;;
29774;SDS011;16676;51.202;6.774;2022-09-29T03:42:40;5.20;;;2.35;;
29774;SDS011;16676;51.202;6.774;2022-09-29T03:46:42;4.85;;;2.10;;
29774;SDS011;16676;51.202;6.774;2022-09-29T03:50:45;5.25;;;2.40;;
29774;SDS011;16676;51.202;6.774;2022-09-29T03:54:49;4.43;;;2.70;;
29774;SDS011;16676;51.202;6.774;2022-09-29T03:58:53;3.67;;;2.28;;
29774;SDS011;16676;51.202;6.774;2022-09-29T04:02:55;5.03;;;2.50;;
29774;SDS011;16676;51.202;6.774;2022-09-29T04:06:57;4.43;;;2.10;;
29774;SDS011;16676;51.202;6.774;2022-09-29T04:10:59;4.55;;;2.30;;
29774;SDS011;16676;51.202;6.774;2022-09-29T04:15:03;4.50;;;2.50;;
29774;SDS011;16676;51.202;6.774;2022-09-29T04:19:05;5.15;;;2.10;;
29774;SDS011;16676;51.202;6.774;2022-09-29T04:23:07;3.80;;;2.30;;
29774;SDS011;16676;51.202;6.774;2022-09-29T04:27:09;3.78;;;2.20;;
29774;SDS011;16676;51.202;6.774;2022-09-29T04:31:13;3.28;;;2.10;;
29774;SDS011;16676;51.202;6.774;2022-09-29T04:35:15;5.25;;;2.10;;
29774;SDS011;16676;51.202;6.774;2022-09-29T04:39:17;5.35;;;2.53;;
29774;SDS011;16676;51.202;6.774;2022-09-29T04:43:19;4.65;;;2.47;;
29774;SDS011;16676;51.202;6.774;2022-09-29T04:47:22;3.53;;;2.25;;
29774;SDS011;16676;51.202;6.774;2022-09-29T04:51:24;4.13;;;2.22;;
29774;SDS011;16676;51.202;6.774;2022-09-29T04:55:26;2.90;;;1.67;;
29774;SDS011;16676;51.202;6.774;2022-09-29T04:59:28;2.95;;;2.10;;
29774;SDS011;16676;51.202;6.774;2022-09-29T05:03:32;3.20;;;2.15;;
29774;SDS011;16676;51.202;6.774;2022-09-29T05:07:34;3.08;;;2.20;;
29774;SDS011;16676;51.202;6.774;2022-09-29T05:11:36;4.18;;;2.08;;
29774;SDS011;16676;51.202;6.774;2022-09-29T05:15:38;3.60;;;1.90;;
29774;SDS011;16676;51.202;6.774;2022-09-29T05:19:42;3.90;;;2.10;;
29774;SDS011;16676;51.202;6.774;2022-09-29T05:23:44;3.28;;;1.98;;
29774;SDS011;16676;51.202;6.774;2022-09-29T05:27:46;3.75;;;1.80;;
29774;SDS011;16676;51.202;6.774;2022-09-29T05:31:48;4.47;;;2.28;;
29774;SDS011;16676;51.202;6.774;2022-09-29T05:35:51;2.95;;;2.15;;
29774;SDS011;16676;51.202;6.774;2022-09-29T05:39:53;4.05;;;2.20;;
29774;SDS011;16676;51.202;6.774;2022-09-29T05:43:55;4.13;;;2.20;;
29774;SDS011;16676;51.202;6.774;2022-09-29T05:47:58;5.28;;;2.40;;
29774;SDS011;16676;51.202;6.774;2022-09-29T05:52:02;4.15;;;2.42;;
29774;SDS011;16676;51.202;6.774;2022-09-29T05:56:04;4.65;;;2.17;;
29774;SDS011;16676;51.202;6.774;2022-09-29T06:00:07;5.13;;;2.10;;
29774;SDS011;16676;51.202;6.774;2022-09-29T06:04:09;3.67;;;1.90;;
29774;SDS011;16676;51.202;6.774;2022-09-29T06:08:13;4.88;;;2.20;;
29774;SDS011;16676;51.202;6.774;2022-09-29T06:12:15;3.90;;;1.70;;
29774;SDS011;16676;51.202;6.774;2022-09-29T06:16:18;4.25;;;1.48;;
29774;SDS011;16676;51.202;6.774;2022-09-29T06:20:21;3.35;;;1.98;;
29774;SDS011;16676;51.202;6.774;2022-09-29T06:24:25;4.53;;;2.05;;
29774;SDS011;16676;51.202;6.774;2022-09-29T06:28:27;2.80;;;1.83;;
29774;SDS011;16676;51.202;6.774;2022-09-29T06:32:29;5.18;;;1.88;;
29774;SDS011;16676;51.202;6.774;2022-09-29T06:36:33;4.20;;;2.08;;
29774;SDS011;16676;51.202;6.774;2022-09-29T06:40:57;3.17;;;1.98;;
29774;SDS011;16676;51.202;6.774;2022-09-29T06:45:00;6.40;;;1.88;;
29774;SDS011;16676;51.202;6.774;2022-09-29T06:49:02;3.72;;;2.30;;
29774;SDS011;16676;51.202;6.774;2022-09-29T06:53:04;6.55;;;3.30;;
29774;SDS011;16676;51.202;6.774;2022-09-29T06:57:07;6.13;;;4.13;;
29774;SDS011;16676;51.202;6.774;2022-09-29T07:01:10;6.75;;;3.47;;
29774;SDS011;16676;51.202;6.774;2022-09-29T07:05:12;5.50;;;2.75;;
29774;SDS011;16676;51.202;6.774;2022-09-29T07:09:15;3.65;;;2.28;;
29774;SDS011;16676;51.202;6.774;2022-09-29T07:13:19;2.95;;;2.13;;
29774;SDS011;16676;51.202;6.774;2022-09-29T07:17:21;3.08;;;1.85;;
29774;SDS011;16676;51.202;6.774;2022-09-29T07:21:23;3.67;;;1.70;;
29774;SDS011;16676;51.202;6.774;2022-09-29T07:25:25;4.85;;;1.90;;
29774;SDS011;16676;51.202;6.774;2022-09-29T07:29:28;3.80;;;1.85;;
29774;SDS011;16676;51.202;6.774;2022-09-29T07:33:32;6.00;;;1.90;;
29774;SDS011;16676;51.202;6.774;2022-09-29T07:37:34;6.88;;;1.70;;
29774;SDS011;16676;51.202;6.774;2022-09-29T07:41:36;4.00;;;1.48;;
29774;SDS011;16676;51.202;6.774;2022-09-29T07:45:42;4.00;;;1.50;;
29774;SDS011;16676;51.202;6.774;2022-09-29T07:49:46;3.92;;;1.30;;
29774;SDS011;16676;51.202;6.774;2022-09-29T07:53:48;2.58;;;1.55;;
29774;SDS011;16676;51.202;6.774;2022-09-29T07:57:50;4.97;;;1.60;;
29774;SDS011;16676;51.202;6.774;2022-09-29T08:01:53;5.47;;;1.50;;
29774;SDS011;16676;51.202;6.774;2022-09-29T08:05:56;5.30;;;1.50;;
29774;SDS011;16676;51.202;6.774;2022-09-29T08:09:58;2.00;;;1.23;;
29774;SDS011;16676;51.202;6.774;2022-09-29T08:14:00;3.53;;;1.38;;
29774;SDS011;16676;51.202;6.774;2022-09-29T08:18:06;2.85;;;1.67;;
29774;SDS011;16676;51.202;6.774;2022-09-29T08:22:08;6.68;;;1.40;;
29774;SDS011;16676;51.202;6.774;2022-09-29T08:26:11;2.33;;;1.10;;
29774;SDS011;16676;51.202;6.774;2022-09-29T08:30:14;3.55;;;1.10;;
29774;SDS011;16676;51.202;6.774;2022-09-29T08:34:18;4.85;;;1.30;;
29774;SDS011;16676;51.202;6.774;2022-09-29T08:38:20;5.03;;;1.35;;
29774;SDS011;16676;51.202;6.774;2022-09-29T08:42:23;2.70;;;1.10;;
29774;SDS011;16676;51.202;6.774;2022-09-29T08:46:32;2.22;;;1.17;;
29774;SDS011;16676;51.202;6.774;2022-09-29T08:50:41;2.17;;;1.00;;
29774;SDS011;16676;51.202;6.774;2022-09-29T08:54:46;1.52;;;0.90;;
29774;SDS011;16676;51.202;6.774;2022-09-29T08:58:51;3.17;;;1.00;;
29774;SDS011;16676;51.202;6.774;2022-09-29T09:02:57;4.28;;;1.27;;
29774;SDS011;16676;51.202;6.774;2022-09-29T09:07:10;7.05;;;0.80;;
29774;SDS011;16676;51.202;6.774;2022-09-29T09:11:24;2.67;;;0.90;;
29774;SDS011;16676;51.202;6.774;2022-09-29T09:15:40;3.17;;;0.85;;
29774;SDS011;16676;51.202;6.774;2022-09-29T09:20:09;3.60;;;0.93;;
29774;SDS011;16676;51.202;6.774;2022-09-29T09:24:20;2.05;;;1.17;;
29774;SDS011;16676;51.202;6.774;2022-09-29T09:28:29;1.88;;;0.90;;
29774;SDS011;16676;51.202;6.774;2022-09-29T09:32:36;3.60;;;1.20;;
29774;SDS011;16676;51.202;6.774;2022-09-29T09:40:49;3.88;;;1.20;;
29774;SDS011;16676;51.202;6.774;2022-09-29T09:44:56;3.63;;;1.00;;
29774;SDS011;16676;51.202;6.774;2022-09-29T09:49:04;3.85;;;0.95;;
29774;SDS011;16676;51.202;6.774;2022-09-29T09:53:18;2.30;;;0.80;;
29774;SDS011;16676;51.202;6.774;2022-09-29T09:57:36;1.85;;;1.15;;
29774;SDS011;16676;51.202;6.774;2022-09-29T10:01:49;2.65;;;1.10;;
29774;SDS011;16676;51.202;6.774;2022-09-29T10:05:51;1.33;;;1.00;;
29774;SDS011;16676;51.202;6.774;2022-09-29T10:09:53;4.82;;;1.00;;
29774;SDS011;16676;51.202;6.774;2022-09-29T10:13:59;1.10;;;0.90;;
29774;SDS011;16676;51.202;6.774;2022-09-29T10:22:11;2.13;;;1.20;;
29774;SDS011;16676;51.202;6.774;2022-09-29T10:26:14;1.58;;;0.90;;
29774;SDS011;16676;51.202;6.774;2022-09-29T10:30:22;1.63;;;0.90;;
29774;SDS011;16676;51.202;6.774;2022-09-29T10:34:32;1.23;;;0.95;;
29774;SDS011;16676;51.202;6.774;2022-09-29T10:38:36;2.78;;;0.70;;
29774;SDS011;16676;51.202;6.774;2022-09-29T10:42:38;2.13;;;1.00;;
29774;SDS011;16676;51.202;6.774;2022-09-29T10:46:48;1.77;;;1.00;;
29774;SDS011;16676;51.202;6.774;2022-09-29T10:50:54;1.27;;;0.80;;
29774;SDS011;16676;51.202;6.774;2022-09-29T10:54:58;1.33;;;0.82;;
29774;SDS011;16676;51.202;6.774;2022-09-29T10:59:03;3.00;;;1.10;;
29774;SDS011;16676;51.202;6.774;2022-09-29T11:03:07;1.27;;;0.73;;
29774;SDS011;16676;51.202;6.774;2022-09-29T11:07:19;1.17;;;0.90;;
29774;SDS011;16676;51.202;6.774;2022-09-29T11:11:22;1.30;;;0.73;;
29774;SDS011;16676;51.202;6.774;2022-09-29T11:15:27;1.23;;;0.80;;
29774;SDS011;16676;51.202;6.774;2022-09-29T11:19:40;2.17;;;0.90;;
29774;SDS011;16676;51.202;6.774;2022-09-29T11:23:42;1.48;;;1.00;;
29774;SDS011;16676;51.202;6.774;2022-09-29T11:27:57;1.27;;;0.85;;
29774;SDS011;16676;51.202;6.774;2022-09-29T11:32:10;2.10;;;1.10;;
29774;SDS011;16676;51.202;6.774;2022-09-29T11:36:27;1.48;;;0.80;;
29774;SDS011;16676;51.202;6.774;2022-09-29T11:40:40;1.60;;;0.88;;
29774;SDS011;16676;51.202;6.774;2022-09-29T11:44:54;1.67;;;0.90;;
29774;SDS011;16676;51.202;6.774;2022-09-29T11:53:29;3.00;;;0.70;;
29774;SDS011;16676;51.202;6.774;2022-09-29T11:57:42;1.75;;;0.90;;
29774;SDS011;16676;51.202;6.774;2022-09-29T12:01:55;0.82;;;0.70;;
29774;SDS011;16676;51.202;6.774;2022-09-29T12:06:26;1.30;;;1.00;;
29774;SDS011;16676;51.202;6.774;2022-09-29T12:11:06;3.20;;;1.00;;
29774;SDS011;16676;51.202;6.774;2022-09-29T12:15:17;1.75;;;0.93;;
29774;SDS011;16676;51.202;6.774;2022-09-29T12:19:28;3.08;;;1.02;;
29774;SDS011;16676;51.202;6.774;2022-09-29T12:23:34;2.13;;;0.95;;
29774;SDS011;16676;51.202;6.774;2022-09-29T12:27:39;2.45;;;0.60;;
29774;SDS011;16676;51.202;6.774;2022-09-29T12:31:45;1.45;;;0.90;;
29774;SDS011;16676;51.202;6.774;2022-09-29T12:35:51;1.25;;;0.80;;
29774;SDS011;16676;51.202;6.774;2022-09-29T12:40:04;2.88;;;0.95;;
29774;SDS011;16676;51.202;6.774;2022-09-29T12:44:14;1.55;;;0.80;;
29774;SDS011;16676;51.202;6.774;2022-09-29T12:48:24;1.58;;;0.90;;
29774;SDS011;16676;51.202;6.774;2022-09-29T12:52:36;2.70;;;0.82;;
29774;SDS011;16676;51.202;6.774;2022-09-29T12:56:46;1.67;;;0.82;;
29774;SDS011;16676;51.202;6.774;2022-09-29T13:00:57;2.42;;;0.93;;
29774;SDS011;16676;51.202;6.774;2022-09-29T13:05:15;0.80;;;0.70;;
29774;SDS011;16676;51.202;6.774;2022-09-29T13:18:23;4.63;;;2.33;;
29774;SDS011;16676;51.202;6.774;2022-09-29T13:27:29;4.47;;;2.30;;
29774;SDS011;16676;51.202;6.774;2022-09-29T13:31:34;3.03;;;1.90;;
29774;SDS011;16676;51.202;6.774;2022-09-29T13:35:41;3.88;;;1.50;;
29774;SDS011;16676;51.202;6.774;2022-09-29T13:39:50;6.30;;;1.88;;
29774;SDS011;16676;51.202;6.774;2022-09-29T13:44:03;3.25;;;1.35;;
29774;SDS011;16676;51.202;6.774;2022-09-29T13:52:38;3.40;;;1.63;;
29774;SDS011;16676;51.202;6.774;2022-09-29T13:56:48;2.53;;;1.15;;
29774;SDS011;16676;51.202;6.774;2022-09-29T14:00:52;2.15;;;1.00;;
29774;SDS011;16676;51.202;6.774;2022-09-29T14:04:56;3.40;;;1.42;;
29774;SDS011;16676;51.202;6.774;2022-09-29T14:09:00;3.15;;;1.60;;
29774;SDS011;16676;51.202;6.774;2022-09-29T14:13:09;5.68;;;1.42;;
29774;SDS011;16676;51.202;6.774;2022-09-29T14:17:15;5.30;;;1.70;;
29774;SDS011;16676;51.202;6.774;2022-09-29T14:25:49;5.40;;;1.60;;
29774;SDS011;16676;51.202;6.774;2022-09-29T14:29:54;7.87;;;1.67;;
29774;SDS011;16676;51.202;6.774;2022-09-29T14:34:02;3.60;;;1.65;;
29774;SDS011;16676;51.202;6.774;2022-09-29T14:38:05;6.75;;;1.70;;
29774;SDS011;16676;51.202;6.774;2022-09-29T14:42:16;2.70;;;1.20;;
29774;SDS011;16676;51.202;6.774;2022-09-29T14:46:21;5.45;;;1.63;;
29774;SDS011;16676;51.202;6.774;2022-09-29T14:50:56;3.38;;;1.30;;
29774;SDS011;16676;51.202;6.774;2022-09-29T14:55:25;2.92;;;1.35;;
29774;SDS011;16676;51.202;6.774;2022-09-29T14:59:42;8.98;;;1.60;;
29774;SDS011;16676;51.202;6.774;2022-09-29T15:03:54;5.18;;;1.33;;
29774;SDS011;16676;51.202;6.774;2022-09-29T15:07:58;5.18;;;1.15;;
29774;SDS011;16676;51.202;6.774;2022-09-29T15:12:11;4.28;;;1.50;;
29774;SDS011;16676;51.202;6.774;2022-09-29T15:16:20;2.88;;;1.48;;
29774;SDS011;16676;51.202;6.774;2022-09-29T15:20:27;3.83;;;1.10;;
29774;SDS011;16676;51.202;6.774;2022-09-29T15:24:41;4.35;;;1.30;;
29774;SDS011;16676;51.202;6.774;2022-09-29T15:28:51;1.88;;;1.17;;
29774;SDS011;16676;51.202;6.774;2022-09-29T15:33:01;2.80;;;1.10;;
29774;SDS011;16676;51.202;6.774;2022-09-29T15:37:10;3.50;;;0.98;;
29774;SDS011;16676;51.202;6.774;2022-09-29T15:41:16;2.13;;;1.05;;
29774;SDS011;16676;51.202;6.774;2022-09-29T15:45:23;2.92;;;1.08;;
29774;SDS011;16676;51.202;6.774;2022-09-29T15:49:29;2.70;;;0.93;;
29774;SDS011;16676;51.202;6.774;2022-09-29T15:53:31;3.63;;;1.10;;
29774;SDS011;16676;51.202;6.774;2022-09-29T15:57:39;5.65;;;1.15;;
29774;SDS011;16676;51.202;6.774;2022-09-29T16:01:43;3.97;;;1.33;;
29774;SDS011;16676;51.202;6.774;2022-09-29T16:05:53;5.07;;;1.10;;
29774;SDS011;16676;51.202;6.774;2022-09-29T16:10:02;2.72;;;1.02;;
29774;SDS011;16676;51.202;6.774;2022-09-29T16:14:09;3.70;;;1.23;;
29774;SDS011;16676;51.202;6.774;2022-09-29T16:18:15;5.65;;;1.42;;
29774;SDS011;16676;51.202;6.774;2022-09-29T16:22:25;3.05;;;1.25;;
29774;SDS011;16676;51.202;6.774;2022-09-29T16:26:32;2.80;;;1.10;;
29774;SDS011;16676;51.202;6.774;2022-09-29T16:30:36;4.68;;;1.50;;
29774;SDS011;16676;51.202;6.774;2022-09-29T16:34:38;2.65;;;0.93;;
29774;SDS011;16676;51.202;6.774;2022-09-29T16:38:44;2.47;;;1.10;;
29774;SDS011;16676;51.202;6.774;2022-09-29T16:42:48;2.33;;;0.95;;
29774;SDS011;16676;51.202;6.774;2022-09-29T16:46:53;2.15;;;0.98;;
29774;SDS011;16676;51.202;6.774;2022-09-29T16:50:59;1.77;;;0.95;;
29774;SDS011;16676;51.202;6.774;2022-09-29T16:55:14;2.47;;;1.00;;
29774;SDS011;16676;51.202;6.774;2022-09-29T16:59:19;8.18;;;2.60;;
29774;SDS011;16676;51.202;6.774;2022-09-29T17:03:20;20.00;;;5.47;;
29774;SDS011;16676;51.202;6.774;2022-09-29T17:07:23;25.55;;;7.45;;
29774;SDS011;16676;51.202;6.774;2022-09-29T17:11:28;64.63;;;23.73;;
29774;SDS011;16676;51.202;6.774;2022-09-29T17:15:30;196.45;;;69.80;;
29774;SDS011;16676;51.202;6.774;2022-09-29T17:19:33;235.05;;;92.65;;
29774;SDS011;16676;51.202;6.774;2022-09-29T17:23:35;234.57;;;89.60;;
29774;SDS011;16676;51.202;6.774;2022-09-29T17:27:38;237.95;;;93.50;;
29774;SDS011;16676;51.202;6.774;2022-09-29T17:31:58;218.25;;;88.93;;
29774;SDS011;16676;51.202;6.774;2022-09-29T17:36:01;211.77;;;83.20;;
29774;SDS011;16676;51.202;6.774;2022-09-29T17:40:07;209.40;;;81.53;;
29774;SDS011;16676;51.202;6.774;2022-09-29T17:44:19;181.38;;;77.13;;
29774;SDS011;16676;51.202;6.774;2022-09-29T17:48:21;188.43;;;80.20;;
29774;SDS011;16676;51.202;6.774;2022-09-29T17:52:23;184.13;;;80.45;;
29774;SDS011;16676;51.202;6.774;2022-09-29T17:56:25;198.23;;;82.28;;
29774;SDS011;16676;51.202;6.774;2022-09-29T18:00:30;185.48;;;79.00;;
29774;SDS011;16676;51.202;6.774;2022-09-29T18:08:38;176.23;;;73.63;;
29774;SDS011;16676;51.202;6.774;2022-09-29T18:12:40;171.10;;;72.20;;
29774;SDS011;16676;51.202;6.774;2022-09-29T18:16:43;173.90;;;70.72;;
29774;SDS011;16676;51.202;6.774;2022-09-29T18:20:46;166.25;;;70.53;;
29774;SDS011;16676;51.202;6.774;2022-09-29T18:24:49;167.65;;;71.93;;
29774;SDS011;16676;51.202;6.774;2022-09-29T18:28:52;169.25;;;69.05;;
29774;SDS011;16676;51.202;6.774;2022-09-29T18:32:56;158.05;;;67.45;;
29774;SDS011;16676;51.202;6.774;2022-09-29T18:37:00;166.98;;;69.05;;
29774;SDS011;16676;51.202;6.774;2022-09-29T18:41:02;162.23;;;69.32;;
29774;SDS011;16676;51.202;6.774;2022-09-29T18:45:08;164.70;;;69.25;;
29774;SDS011;16676;51.202;6.774;2022-09-29T18:49:14;158.38;;;67.97;;
29774;SDS011;16676;51.202;6.774;2022-09-29T18:53:16;148.00;;;64.68;;
29774;SDS011;16676;51.202;6.774;2022-09-29T18:57:20;148.00;;;65.68;;
29774;SDS011;16676;51.202;6.774;2022-09-29T19:01:22;145.15;;;63.05;;
29774;SDS011;16676;51.202;6.774;2022-09-29T19:05:28;134.60;;;62.67;;
29774;SDS011;16676;51.202;6.774;2022-09-29T19:09:31;143.00;;;62.65;;
29774;SDS011;16676;51.202;6.774;2022-09-29T19:13:33;108.82;;;48.58;;
29774;SDS011;16676;51.202;6.774;2022-09-29T19:17:35;126.95;;;54.70;;
29774;SDS011;16676;51.202;6.774;2022-09-29T19:21:38;125.55;;;54.90;;
29774;SDS011;16676;51.202;6.774;2022-09-29T19:25:42;125.88;;;55.42;;
29774;SDS011;16676;51.202;6.774;2022-09-29T19:29:44;116.13;;;52.33;;
29774;SDS011;16676;51.202;6.774;2022-09-29T19:33:47;127.43;;;53.42;;
29774;SDS011;16676;51.202;6.774;2022-09-29T19:37:51;117.18;;;52.05;;
29774;SDS011;16676;51.202;6.774;2022-09-29T19:41:55;111.22;;;52.08;;
29774;SDS011;16676;51.202;6.774;2022-09-29T19:45:56;110.70;;;50.65;;
29774;SDS011;16676;51.202;6.774;2022-09-29T19:50:06;109.10;;;50.40;;
29774;SDS011;16676;51.202;6.774;2022-09-29T19:54:29;105.78;;;48.53;;
29774;SDS011;16676;51.202;6.774;2022-09-29T19:58:33;114.22;;;49.50;;
29774;SDS011;16676;51.202;6.774;2022-09-29T20:02:38;110.55;;;50.28;;
29774;SDS011;16676;51.202;6.774;2022-09-29T20:06:40;106.13;;;48.25;;
29774;SDS011;16676;51.202;6.774;2022-09-29T20:10:44;107.13;;;47.80;;
29774;SDS011;16676;51.202;6.774;2022-09-29T20:14:46;102.88;;;47.22;;
29774;SDS011;16676;51.202;6.774;2022-09-29T20:18:50;98.05;;;46.50;;
29774;SDS011;16676;51.202;6.774;2022-09-29T20:22:52;98.55;;;47.45;;
29774;SDS011;16676;51.202;6.774;2022-09-29T20:26:55;100.00;;;46.17;;
29774;SDS011;16676;51.202;6.774;2022-09-29T20:30:57;94.75;;;45.63;;
29774;SDS011;16676;51.202;6.774;2022-09-29T20:35:00;94.28;;;45.67;;
29774;SDS011;16676;51.202;6.774;2022-09-29T20:39:02;94.53;;;43.28;;
29774;SDS011;16676;51.202;6.774;2022-09-29T20:43:06;90.95;;;44.00;;
29774;SDS011;16676;51.202;6.774;2022-09-29T20:47:10;89.00;;;43.13;;
29774;SDS011;16676;51.202;6.774;2022-09-29T20:51:12;99.88;;;44.75;;
29774;SDS011;16676;51.202;6.774;2022-09-29T20:55:15;90.75;;;44.72;;
29774;SDS011;16676;51.202;6.774;2022-09-29T20:59:19;92.88;;;43.47;;
29774;SDS011;16676;51.202;6.774;2022-09-29T21:03:22;85.00;;;42.00;;
29774;SDS011;16676;51.202;6.774;2022-09-29T21:07:25;90.95;;;43.25;;
29774;SDS011;16676;51.202;6.774;2022-09-29T21:11:36;86.00;;;41.55;;
29774;SDS011;16676;51.202;6.774;2022-09-29T21:15:41;88.07;;;41.53;;
29774;SDS011;16676;51.202;6.774;2022-09-29T21:19:43;90.18;;;43.03;;
29774;SDS011;16676;51.202;6.774;2022-09-29T21:23:45;86.15;;;40.67;;
29774;SDS011;16676;51.202;6.774;2022-09-29T21:27:48;82.60;;;40.85;;
29774;SDS011;16676;51.202;6.774;2022-09-29T21:31:52;76.65;;;40.83;;
29774;SDS011;16676;51.202;6.774;2022-09-29T21:35:54;82.03;;;40.75;;
29774;SDS011;16676;51.202;6.774;2022-09-29T21:39:57;78.40;;;39.67;;
29774;SDS011;16676;51.202;6.774;2022-09-29T21:43:59;81.13;;;40.33;;
29774;SDS011;16676;51.202;6.774;2022-09-29T21:48:07;84.97;;;41.10;;
29774;SDS011;16676;51.202;6.774;2022-09-29T21:52:10;78.70;;;39.65;;
29774;SDS011;16676;51.202;6.774;2022-09-29T21:56:13;77.60;;;38.58;;
29774;SDS011;16676;51.202;6.774;2022-09-29T22:00:16;74.18;;;38.28;;
29774;SDS011;16676;51.202;6.774;2022-09-29T22:04:20;75.70;;;37.97;;
29774;SDS011;16676;51.202;6.774;2022-09-29T22:08:23;74.25;;;38.75;;
29774;SDS011;16676;51.202;6.774;2022-09-29T22:12:25;73.40;;;37.30;;
29774;SDS011;16676;51.202;6.774;2022-09-29T22:16:28;69.75;;;37.83;;
29774;SDS011;16676;51.202;6.774;2022-09-29T22:20:33;72.53;;;37.03;;
29774;SDS011;16676;51.202;6.774;2022-09-29T22:24:35;73.30;;;36.85;;
29774;SDS011;16676;51.202;6.774;2022-09-29T22:28:37;73.55;;;37.53;;
29774;SDS011;16676;51.202;6.774;2022-09-29T22:32:40;77.10;;;38.70;;
29774;SDS011;16676;51.202;6.774;2022-09-29T22:36:43;68.03;;;34.83;;
29774;SDS011;16676;51.202;6.774;2022-09-29T22:40:45;74.40;;;37.28;;
29774;SDS011;16676;51.202;6.774;2022-09-29T22:44:47;69.18;;;35.65;;
29774;SDS011;16676;51.202;6.774;2022-09-29T22:48:49;68.30;;;35.60;;
29774;SDS011;16676;51.202;6.774;2022-09-29T22:52:53;63.70;;;33.97;;
29774;SDS011;16676;51.202;6.774;2022-09-29T22:56:56;64.43;;;34.95;;
29774;SDS011;16676;51.202;6.774;2022-09-29T23:01:02;70.28;;;36.22;;
29774;SDS011;16676;51.202;6.774;2022-09-29T23:05:05;64.47;;;33.72;;
29774;SDS011;16676;51.202;6.774;2022-09-29T23:09:09;62.75;;;33.35;;
29774;SDS011;16676;51.202;6.774;2022-09-29T23:13:11;62.17;;;33.45;;
29774;SDS011;16676;51.202;6.774;2022-09-29T23:17:14;62.10;;;34.20;;
29774;SDS011;16676;51.202;6.774;2022-09-29T23:21:16;61.67;;;32.20;;
29774;SDS011;16676;51.202;6.774;2022-09-29T23:25:20;66.60;;;33.38;;
29774;SDS011;16676;51.202;6.774;2022-09-29T23:29:22;58.97;;;31.90;;
29774;SDS011;16676;51.202;6.774;2022-09-29T23:33:23;61.88;;;31.52;;
29774;SDS011;16676;51.202;6.774;2022-09-29T23:37:26;59.97;;;32.85;;
29774;SDS011;16676;51.202;6.774;2022-09-29T23:41:52;61.53;;;31.88;;
29774;SDS011;16676;51.202;6.774;2022-09-29T23:45:54;57.20;;;31.67;;
29774;SDS011;16676;51.202;6.774;2022-09-29T23:49:56;58.50;;;31.23;;
29774;SDS011;16676;51.202;6.774;2022-09-29T23:53:58;62.95;;;32.17;;
29774;SDS011;16676;51.202;6.774;2022-09-29T23:58:01;59.92;;;30.83;;
